KBUR/BUR METAR and TAF weather

Enter ICAO airport designator
Station Type Date Time Source
KBUR METAR 2019/08/24 08:53 UTC NOAA

KBUR 240853Z 13003KT 10SM CLR 20/17 A2992 RMK AO2 SLP118 T02000167 51011 $


Station Type Date Time Source
KBUR Decoded METAR 2019/08/24 08:53 UTC NOAA

Station name not available
Aug 24, 2019 - 04:53 AM EDT / 2019.08.24 0853 UTC
Wind: from the SE (130 degrees) at 3 MPH (3 KT):0
Visibility: 10 mile(s):0
Sky conditions: clear
Temperature: 68.0 F (20.0 C)
Dew Point: 62.1 F (16.7 C)
Relative Humidity: 81%
Pressure (altimeter): 29.92 in. Hg (1013 hPa)
Pressure tendency: 0.03 inches (1.1 hPa) higher than three hours ago
ob: KBUR 240853Z 13003KT 10SM CLR 20/17 A2992 RMK AO2 SLP118 T02000167 51011
cycle: 9

Station Type Date Time Source
KBUR TAF 2019/08/24 06:48 UTC NOAA

TAF KBUR 240545Z 2406/2506 16006KT P6SM SKC
FM241200 VRB03KT P6SM OVC008
FM241600 VRB03KT P6SM SCT010
FM241900 17008KT P6SM SKC
FM250400 12006KT P6SM SKC

Example: see airport list